Startpagina
METAR-TAF:

METAR-TAF

Vliegvelden :

Oslo, Noorwegen

Luchthaven Oslo Gardermoen

breedte: 60-12N, lengte: 011-05E, hoogte: 208 m

Actueel weer

Dit bericht is 30 minuten geleden gemaakt, om 14:50 UTC
Wind 6 kt uit het noordoosten, variërend tussen het noorden en het oosten
Temperatuur 12°C
Vochtigheid 71%
Druk 1025 hPa
Zicht 10 km of meer
Geheel bewolkt op 4100 ft

METAR: ENGM 221450Z 04006KT 360V080 9999 OVC041 12/07 Q1025 NOSIG

Tijdstip: 17:20 (15:20 UTC)

Verwachting

Verwachting geldig van 22 om 12 UTC tot 23 om 12 UTC
Wind 5 kt uit het noordoosten
Zicht 10 km of meer
Weinig wolken op 1200 ft
Gebroken wolken op 3000 ft
Wijzigt naar
van 22 om 22 UTC tot 22 om 24 UTC
Verspreide wolken op 800 ft
Gebroken wolken op 1200 ft
Tijdelijke
van 22 om 22 UTC tot 23 om 12 UTC
Zicht: 4000 m
Geheel bewolkt op 800 ft
motregen, regen, nevel

TAF: ENGM 2212/2312 04005KT 9999 FEW012 BKN030 BECMG 2222/2224 SCT008 BKN012 TEMPO 2222/2312 4000 DZRA BR OVC008

Waarnemingen en weersverwachtingen van meer dan 4000 vliegvelden (METAR en TAF).

De beschikbare stations zijn de gele en rode punten op de kaart.

Ga met uw muis naar het station om de naam te zien.

Klik dan om waarnemingen en weersverwachtingen te zien.

kaart wijzigen: klik op de groene knoppen met een zwart kruis om in te zoomen, op de groene knop met een streepje om uit te zoomen of op de groene pijlen voor aangrenzende kaarten.


METAR-TAF: